createdAt,value
2024-03-09T00:02:21.956Z,6.40
2024-03-09T00:05:07.545Z,5.90
2024-03-09T00:07:58.004Z,7.43
2024-03-09T00:10:43.916Z,8.23
2024-03-09T00:13:30.533Z,8.27
2024-03-09T00:16:16.889Z,6.20
2024-03-09T00:19:04.923Z,6.53
2024-03-09T00:21:50.418Z,8.10
2024-03-09T00:24:35.954Z,6.30
2024-03-09T00:27:27.827Z,7.47
2024-03-09T00:30:19.091Z,7.73
2024-03-09T00:33:07.793Z,9.57
2024-03-09T00:35:55.642Z,8.17
2024-03-09T00:38:42.000Z,6.30
2024-03-09T00:41:27.405Z,8.30
2024-03-09T00:44:12.752Z,9.00
2024-03-09T00:46:58.209Z,7.13
2024-03-09T00:49:44.199Z,8.27
2024-03-09T00:52:29.600Z,7.37
2024-03-09T00:55:17.855Z,8.23
2024-03-09T00:58:03.466Z,7.43
2024-03-09T01:00:49.806Z,6.97
2024-03-09T01:03:35.832Z,8.40
2024-03-09T01:06:22.165Z,6.40
2024-03-09T01:09:08.391Z,8.13
2024-03-09T01:11:54.276Z,7.23
2024-03-09T01:14:40.363Z,9.60
2024-03-09T01:17:25.978Z,7.53
2024-03-09T01:20:11.730Z,6.97
2024-03-09T01:22:57.642Z,5.93
2024-03-09T01:25:43.775Z,7.63
2024-03-09T01:28:30.269Z,7.43
2024-03-09T01:31:18.039Z,7.90
2024-03-09T01:34:06.419Z,9.67
2024-03-09T01:36:51.416Z,8.40
2024-03-09T01:39:40.282Z,6.53
2024-03-09T01:42:28.207Z,6.67
2024-03-09T01:45:13.622Z,6.50
2024-03-09T01:48:01.980Z,9.40
2024-03-09T01:50:47.922Z,7.80
2024-03-09T01:53:34.364Z,8.37
2024-03-09T01:56:20.898Z,6.83
2024-03-09T01:59:09.274Z,7.50
2024-03-09T02:01:55.849Z,7.03
2024-03-09T02:04:42.349Z,6.20
2024-03-09T02:07:27.876Z,5.40
2024-03-09T02:10:15.038Z,6.67
2024-03-09T02:13:01.393Z,7.50
2024-03-09T02:15:48.446Z,5.83
2024-03-09T02:18:34.405Z,5.57
2024-03-09T02:21:20.662Z,8.03
2024-03-09T02:24:12.564Z,6.60
2024-03-09T02:27:00.589Z,6.07
2024-03-09T02:29:47.663Z,5.80
2024-03-09T02:32:32.831Z,6.13
2024-03-09T02:35:18.298Z,6.27
2024-03-09T02:38:05.906Z,5.47
2024-03-09T02:40:51.628Z,6.60
2024-03-09T02:43:37.901Z,5.77
2024-03-09T02:46:26.702Z,6.13
2024-03-09T02:49:12.318Z,7.40
2024-03-09T02:51:57.811Z,6.27
2024-03-09T02:54:43.678Z,7.17
2024-03-09T02:57:29.172Z,8.43
2024-03-09T03:00:15.171Z,6.90
2024-03-09T03:03:19.244Z,6.37
2024-03-09T03:06:04.649Z,6.43
2024-03-09T03:08:54.496Z,5.73
2024-03-09T03:11:42.490Z,4.90
2024-03-09T03:14:27.788Z,5.60
2024-03-09T03:17:13.373Z,6.30
2024-03-09T03:19:58.945Z,6.40
2024-03-09T03:22:47.019Z,4.73
2024-03-09T03:25:32.455Z,5.20
2024-03-09T03:28:17.818Z,5.63
2024-03-09T03:31:06.484Z,5.67
2024-03-09T03:33:51.837Z,5.57
2024-03-09T03:36:39.614Z,5.17
2024-03-09T03:39:28.551Z,5.30
2024-03-09T03:42:14.278Z,4.27
2024-03-09T03:45:01.915Z,4.77
2024-03-09T03:47:47.385Z,6.10
2024-03-09T03:50:33.867Z,5.53
2024-03-09T03:53:19.161Z,5.60
2024-03-09T03:56:04.990Z,5.63
2024-03-09T03:58:50.514Z,4.77
2024-03-09T04:01:36.201Z,6.13
2024-03-09T04:04:22.995Z,5.47
2024-03-09T04:07:08.184Z,4.40
2024-03-09T04:09:55.889Z,5.83
2024-03-09T04:12:44.302Z,4.53
2024-03-09T04:15:29.865Z,4.63
2024-03-09T04:18:15.215Z,5.00
2024-03-09T04:21:03.334Z,4.97
2024-03-09T04:23:48.721Z,3.90
2024-03-09T04:26:34.336Z,4.23
2024-03-09T04:29:19.814Z,4.30
2024-03-09T04:32:08.799Z,4.37
2024-03-09T04:34:54.929Z,4.47
2024-03-09T04:37:42.283Z,5.50
2024-03-09T04:40:28.365Z,4.20
2024-03-09T04:43:14.764Z,4.27
2024-03-09T04:46:01.420Z,5.43
2024-03-09T04:48:46.818Z,4.07
2024-03-09T04:51:32.205Z,4.10
2024-03-09T04:54:19.978Z,4.13
2024-03-09T04:57:06.017Z,5.13
2024-03-09T04:59:51.857Z,3.50
2024-03-09T05:02:37.365Z,4.13
2024-03-09T05:05:22.917Z,5.60
2024-03-09T05:08:09.536Z,6.67
2024-03-09T05:10:55.696Z,4.23
2024-03-09T05:13:41.052Z,4.57
2024-03-09T05:16:26.474Z,5.47
2024-03-09T05:19:12.039Z,6.07
2024-03-09T05:21:58.151Z,4.27
2024-03-09T05:24:43.852Z,3.53
2024-03-09T05:27:29.193Z,6.60
2024-03-09T05:30:16.509Z,4.00
2024-03-09T05:33:08.195Z,4.17
2024-03-09T05:35:53.520Z,5.13
2024-03-09T05:38:39.783Z,3.27
2024-03-09T05:41:25.423Z,4.07
2024-03-09T05:44:10.884Z,4.13
2024-03-09T05:46:56.583Z,3.90
2024-03-09T05:49:42.020Z,3.87
2024-03-09T05:52:27.719Z,4.20
2024-03-09T05:55:13.414Z,6.60
2024-03-09T05:57:59.364Z,3.70
2024-03-09T06:00:45.498Z,4.60
2024-03-09T06:03:31.167Z,3.37
2024-03-09T06:06:17.262Z,6.77
2024-03-09T06:09:02.947Z,4.07
2024-03-09T06:11:49.458Z,3.90
2024-03-09T06:14:34.920Z,7.13
2024-03-09T06:17:20.421Z,6.10
2024-03-09T06:20:06.419Z,3.93
2024-03-09T06:22:51.816Z,5.83
2024-03-09T06:25:37.073Z,6.93
2024-03-09T06:28:22.447Z,12.73
2024-03-09T06:31:09.890Z,9.77
2024-03-09T06:33:55.329Z,10.60
2024-03-09T06:36:40.702Z,11.60
2024-03-09T06:39:31.897Z,13.33
2024-03-09T06:42:22.613Z,10.53
2024-03-09T06:45:09.403Z,13.00
2024-03-09T06:47:55.546Z,14.33
2024-03-09T06:50:45.739Z,11.57
2024-03-09T06:53:31.764Z,12.83
2024-03-09T06:56:19.097Z,13.73
2024-03-09T06:59:05.059Z,14.53
2024-03-09T07:01:53.271Z,13.57
2024-03-09T07:04:39.095Z,13.27
2024-03-09T07:07:24.610Z,17.07
2024-03-09T07:10:13.350Z,13.13
2024-03-09T07:12:58.974Z,11.63
2024-03-09T07:15:44.572Z,18.47
2024-03-09T07:18:34.620Z,14.80
2024-03-09T07:21:21.909Z,14.57
2024-03-09T07:24:08.565Z,16.23
2024-03-09T07:26:54.714Z,14.07
2024-03-09T07:29:42.485Z,11.67
2024-03-09T07:32:27.824Z,11.13
2024-03-09T07:35:16.089Z,13.07
2024-03-09T07:38:02.469Z,12.87
2024-03-09T07:40:48.813Z,11.80
2024-03-09T07:43:37.559Z,12.20
2024-03-09T07:46:22.802Z,11.13
2024-03-09T07:49:08.674Z,13.90
2024-03-09T07:51:54.164Z,11.17
2024-03-09T07:54:40.447Z,10.77
2024-03-09T07:57:25.783Z,9.50
2024-03-09T08:00:18.922Z,10.60
2024-03-09T08:03:04.557Z,12.35
2024-03-09T08:05:50.932Z,9.70
2024-03-09T08:08:36.624Z,10.37
2024-03-09T08:11:24.185Z,13.37
2024-03-09T08:14:10.239Z,8.60
2024-03-09T08:16:56.805Z,12.70
2024-03-09T08:19:43.780Z,8.60
2024-03-09T08:22:29.795Z,8.53
2024-03-09T08:25:17.441Z,11.73
2024-03-09T08:28:03.105Z,7.77
2024-03-09T08:30:49.007Z,8.20
2024-03-09T08:33:34.762Z,10.00
2024-03-09T08:36:24.187Z,9.53
2024-03-09T08:39:13.545Z,9.37
2024-03-09T08:42:00.949Z,8.67
2024-03-09T08:44:47.343Z,9.00
2024-03-09T08:47:33.594Z,15.50
2024-03-09T08:50:23.489Z,15.43
2024-03-09T08:53:09.736Z,16.33
2024-03-09T08:55:55.944Z,21.23
2024-03-09T08:58:42.481Z,20.87
2024-03-09T09:01:28.510Z,19.47
2024-03-09T09:04:13.921Z,25.67
2024-03-09T09:07:01.264Z,22.80
2024-03-09T09:09:47.117Z,19.73
2024-03-09T09:12:35.783Z,23.97
2024-03-09T09:15:23.157Z,20.50
2024-03-09T09:18:10.596Z,22.10
2024-03-09T09:20:55.970Z,22.23
2024-03-09T09:23:42.144Z,19.20
2024-03-09T09:26:30.056Z,20.30
2024-03-09T09:29:15.909Z,20.40
2024-03-09T09:32:02.323Z,19.77
2024-03-09T09:34:48.123Z,22.70
2024-03-09T09:37:35.379Z,18.33
2024-03-09T09:40:22.316Z,22.40
2024-03-09T09:43:09.629Z,21.93
2024-03-09T09:46:01.923Z,20.70
2024-03-09T09:51:41.692Z,24.73
2024-03-09T09:54:28.866Z,22.03
2024-03-09T09:57:15.885Z,17.73
2024-03-09T10:00:01.264Z,21.53
2024-03-09T10:02:50.042Z,19.77
2024-03-09T10:05:40.487Z,19.53
2024-03-09T10:08:25.853Z,15.63
2024-03-09T10:11:16.335Z,18.43
2024-03-09T10:14:02.682Z,15.77
2024-03-09T10:16:49.677Z,15.40
2024-03-09T10:19:38.944Z,16.37
2024-03-09T10:22:27.219Z,14.20
2024-03-09T10:25:26.225Z,15.43
2024-03-09T10:28:12.466Z,12.67
2024-03-09T10:31:03.470Z,13.13
2024-03-09T10:33:56.073Z,16.17
2024-03-09T10:36:41.661Z,14.57
2024-03-09T10:39:28.454Z,14.60
2024-03-09T10:42:19.204Z,14.33
2024-03-09T10:45:05.287Z,11.70
2024-03-09T10:47:55.282Z,18.07
2024-03-09T10:50:45.318Z,15.50
2024-03-09T10:53:54.621Z,16.07
2024-03-09T10:56:43.851Z,13.60
2024-03-09T10:59:31.575Z,16.80
2024-03-09T11:02:18.557Z,16.07
2024-03-09T11:05:06.698Z,19.37
2024-03-09T11:07:53.289Z,19.87
2024-03-09T11:10:43.139Z,20.93
2024-03-09T11:13:31.978Z,18.17
2024-03-09T11:16:21.384Z,21.10
2024-03-09T11:19:09.852Z,17.57
2024-03-09T11:21:57.053Z,17.67
2024-03-09T11:24:42.530Z,18.63
2024-03-09T11:27:32.354Z,18.30
2024-03-09T11:30:20.618Z,16.67
2024-03-09T11:33:06.147Z,17.30
2024-03-09T11:35:53.421Z,18.70
2024-03-09T11:38:41.144Z,19.27
2024-03-09T11:41:27.706Z,25.70
2024-03-09T11:44:37.969Z,21.97
2024-03-09T11:47:23.576Z,20.00
2024-03-09T11:50:09.361Z,21.13
2024-03-09T11:52:56.307Z,17.73
2024-03-09T11:55:43.055Z,18.93
2024-03-09T11:58:28.452Z,20.60
2024-03-09T12:01:15.291Z,19.80
2024-03-09T12:04:02.613Z,18.50
2024-03-09T12:06:49.308Z,18.33
2024-03-09T12:09:34.889Z,16.00
2024-03-09T12:12:20.198Z,16.23
2024-03-09T12:15:07.290Z,14.33
2024-03-09T12:17:53.677Z,18.53
2024-03-09T12:20:39.643Z,20.83
2024-03-09T12:23:25.732Z,11.50
2024-03-09T12:26:12.056Z,15.57
2024-03-09T12:29:04.845Z,17.17
2024-03-09T12:31:50.635Z,14.57
2024-03-09T12:34:38.108Z,12.43
2024-03-09T12:37:27.805Z,15.27
2024-03-09T12:40:20.763Z,14.10
2024-03-09T12:43:07.043Z,18.98
2024-03-09T12:45:56.706Z,14.63
2024-03-09T12:48:42.358Z,12.20
2024-03-09T12:51:28.146Z,13.27
2024-03-09T12:54:14.500Z,15.57
2024-03-09T12:57:04.371Z,13.27
2024-03-09T12:59:51.733Z,13.60
2024-03-09T13:02:37.773Z,14.17
2024-03-09T13:05:25.134Z,10.97
2024-03-09T13:08:13.261Z,12.13
2024-03-09T13:10:59.188Z,12.37
2024-03-09T13:13:47.378Z,11.70
2024-03-09T13:16:33.523Z,9.93
2024-03-09T13:19:18.996Z,10.83
2024-03-09T13:22:07.117Z,14.93
2024-03-09T13:24:53.515Z,12.63
2024-03-09T13:27:39.803Z,11.53
2024-03-09T13:30:28.282Z,10.20
2024-03-09T13:33:16.816Z,10.60
2024-03-09T13:36:02.144Z,10.30
2024-03-09T13:38:50.258Z,10.23
2024-03-09T13:41:35.284Z,10.20
2024-03-09T13:44:25.417Z,10.87
2024-03-09T13:47:13.263Z,13.83
2024-03-09T13:49:59.093Z,10.97
2024-03-09T13:52:44.456Z,12.77
2024-03-09T13:55:30.883Z,8.63
2024-03-09T13:58:22.239Z,9.30
2024-03-09T14:01:14.887Z,11.02
2024-03-09T14:03:59.977Z,10.60
2024-03-09T14:06:57.345Z,11.37
2024-03-09T14:09:53.066Z,13.13
2024-03-09T14:12:38.242Z,11.23
2024-03-09T14:15:23.955Z,9.63
2024-03-09T14:18:15.667Z,11.43
2024-03-09T14:21:07.716Z,8.87
2024-03-09T14:23:53.596Z,9.57
2024-03-09T14:26:39.383Z,7.60
2024-03-09T14:29:26.347Z,8.97
2024-03-09T14:32:12.223Z,12.87
2024-03-09T14:34:57.594Z,12.27
2024-03-09T14:37:46.510Z,8.43
2024-03-09T14:40:38.284Z,8.83
2024-03-09T14:43:24.793Z,9.50
2024-03-09T14:46:13.158Z,9.37
2024-03-09T14:48:58.475Z,10.93
2024-03-09T14:51:45.205Z,10.60
2024-03-09T14:54:30.928Z,8.37
2024-03-09T14:57:16.301Z,8.93
2024-03-09T15:00:15.368Z,8.50
2024-03-09T15:03:02.521Z,7.80
2024-03-09T15:05:52.427Z,9.87
2024-03-09T15:08:38.704Z,8.60
2024-03-09T15:11:24.330Z,9.03
2024-03-09T15:14:09.860Z,9.07
2024-03-09T15:16:56.989Z,11.67
2024-03-09T15:19:43.044Z,9.13
2024-03-09T15:22:29.976Z,11.23
2024-03-09T15:25:16.688Z,7.70
2024-03-09T15:28:04.409Z,10.73
2024-03-09T15:30:50.971Z,7.53
2024-03-09T15:33:39.108Z,101.20
2024-03-09T15:36:25.585Z,10.63
2024-03-09T15:39:12.603Z,11.27
2024-03-09T15:41:59.366Z,12.50
2024-03-09T15:44:45.526Z,8.37
2024-03-09T15:47:30.891Z,9.60
2024-03-09T15:50:26.953Z,11.40
2024-03-09T15:53:16.593Z,10.70
2024-03-09T15:56:02.732Z,8.00
2024-03-09T15:58:48.615Z,8.13
2024-03-09T16:01:36.718Z,8.10
2024-03-09T16:04:22.547Z,8.07
2024-03-09T16:07:14.266Z,9.63
2024-03-09T16:09:59.597Z,9.40
2024-03-09T16:12:44.951Z,7.93
2024-03-09T16:15:31.727Z,8.87
2024-03-09T16:18:18.535Z,9.03
2024-03-09T16:21:08.492Z,8.43
2024-03-09T16:23:55.275Z,10.33
2024-03-09T16:26:41.015Z,7.53
2024-03-09T16:29:26.392Z,8.67
2024-03-09T16:32:17.689Z,7.47
2024-03-09T16:35:04.019Z,10.03
2024-03-09T16:37:52.498Z,19.10
2024-03-09T16:40:40.113Z,9.07
2024-03-09T16:43:31.401Z,8.47
2024-03-09T16:46:21.550Z,6.97
2024-03-09T16:49:07.165Z,12.03
2024-03-09T16:52:02.532Z,8.50
2024-03-09T16:54:49.051Z,10.53
2024-03-09T16:57:36.323Z,9.40
2024-03-09T17:00:26.409Z,9.93
2024-03-09T17:03:11.922Z,8.50
2024-03-09T17:05:57.905Z,9.30
2024-03-09T17:08:45.285Z,9.07
2024-03-09T17:11:32.139Z,9.83
2024-03-09T17:14:19.587Z,11.73
2024-03-09T17:17:07.130Z,7.07
2024-03-09T17:19:53.137Z,6.57
2024-03-09T17:22:45.228Z,8.67
2024-03-09T17:25:35.179Z,7.00
2024-03-09T17:28:22.321Z,7.83
2024-03-09T17:31:09.417Z,7.63
2024-03-09T17:33:56.296Z,8.47
2024-03-09T17:36:42.798Z,8.67
2024-03-09T17:39:30.351Z,8.17
2024-03-09T17:42:15.910Z,12.00
2024-03-09T17:45:01.258Z,9.53
2024-03-09T17:47:46.734Z,8.87
2024-03-09T17:50:33.578Z,9.50
2024-03-09T17:53:19.197Z,7.23
2024-03-09T17:56:07.571Z,8.73
2024-03-09T17:58:53.036Z,11.00
2024-03-09T18:01:38.634Z,11.57
2024-03-09T18:04:24.369Z,9.87
2024-03-09T18:07:12.183Z,13.30
2024-03-09T18:09:59.808Z,8.17
2024-03-09T18:12:44.853Z,8.20
2024-03-09T18:15:34.377Z,9.73
2024-03-09T18:18:22.473Z,8.30
2024-03-09T18:21:08.479Z,8.80
2024-03-09T18:23:53.843Z,8.97
2024-03-09T18:26:39.392Z,10.07
2024-03-09T18:29:24.965Z,11.17
2024-03-09T18:32:11.492Z,7.57
2024-03-09T18:34:57.487Z,10.30
2024-03-09T18:37:44.997Z,14.93
2024-03-09T18:40:30.594Z,12.07
2024-03-09T18:43:16.442Z,12.93
2024-03-09T18:46:02.575Z,10.37
2024-03-09T18:48:48.038Z,17.67
2024-03-09T18:51:33.960Z,10.40
2024-03-09T18:54:19.036Z,11.17
2024-03-09T18:57:04.974Z,10.73
2024-03-09T18:59:51.471Z,10.57
2024-03-09T19:02:37.220Z,10.83
2024-03-09T19:05:24.042Z,9.77
2024-03-09T19:08:11.531Z,9.63
2024-03-09T19:10:57.554Z,10.17
2024-03-09T19:13:44.442Z,9.70
2024-03-09T19:16:29.897Z,9.77
2024-03-09T19:19:15.291Z,10.67
2024-03-09T19:22:00.619Z,10.33
2024-03-09T19:24:46.063Z,10.53
2024-03-09T19:27:31.509Z,11.40
2024-03-09T19:30:18.706Z,10.73
2024-03-09T19:33:05.449Z,12.70
2024-03-09T19:35:56.177Z,11.30
2024-03-09T19:38:42.079Z,11.43
2024-03-09T19:41:27.597Z,11.93
2024-03-09T19:44:14.910Z,10.00
2024-03-09T19:47:00.435Z,11.47
2024-03-09T19:49:45.758Z,10.87
2024-03-09T19:52:32.076Z,11.13
2024-03-09T19:55:20.557Z,12.93
2024-03-09T19:58:06.196Z,10.47
2024-03-09T20:00:52.258Z,12.53
2024-03-09T20:03:40.815Z,11.93
2024-03-09T20:06:28.165Z,13.00
2024-03-09T20:09:16.411Z,11.80
2024-03-09T20:12:04.817Z,13.07
2024-03-09T20:14:50.511Z,13.50
2024-03-09T20:17:36.013Z,12.87
2024-03-09T20:20:26.285Z,20.43
2024-03-09T20:23:12.954Z,19.17
2024-03-09T20:26:01.015Z,58.73
2024-03-09T20:28:49.038Z,88.40
2024-03-09T20:31:34.507Z,48.23
2024-03-09T20:34:20.047Z,36.87
2024-03-09T20:37:05.438Z,34.27
2024-03-09T20:39:51.706Z,55.20
2024-03-09T20:42:37.013Z,60.33
2024-03-09T20:45:22.981Z,60.13
2024-03-09T20:48:08.454Z,63.93
2024-03-09T20:50:54.175Z,63.00
2024-03-09T20:53:48.527Z,62.63
2024-03-09T20:56:35.648Z,63.13
2024-03-09T20:59:25.411Z,61.60
2024-03-09T21:02:18.764Z,54.10
2024-03-09T21:05:05.347Z,44.10
2024-03-09T21:07:50.983Z,43.10
2024-03-09T21:10:36.934Z,37.83
2024-03-09T21:13:24.194Z,43.00
2024-03-09T21:16:11.303Z,36.13
2024-03-09T21:18:56.888Z,40.27
2024-03-09T21:21:42.135Z,34.27
2024-03-09T21:24:27.476Z,48.30
2024-03-09T21:27:13.661Z,51.57
2024-03-09T21:29:58.856Z,43.37
2024-03-09T21:32:48.129Z,48.57
2024-03-09T21:35:34.923Z,49.43
2024-03-09T21:38:20.434Z,52.97
2024-03-09T21:41:08.782Z,47.73
2024-03-09T21:43:54.127Z,45.63
2024-03-09T21:46:40.227Z,46.47
2024-03-09T21:49:27.390Z,45.40
2024-03-09T21:52:14.382Z,47.53
2024-03-09T21:55:00.206Z,47.67
2024-03-09T21:57:45.713Z,48.37
2024-03-09T22:00:31.128Z,43.00
2024-03-09T22:03:16.530Z,46.97
2024-03-09T22:06:03.263Z,45.50
2024-03-09T22:08:48.672Z,44.83
2024-03-09T22:11:34.531Z,49.47
2024-03-09T22:14:19.987Z,47.47
2024-03-09T22:17:05.867Z,47.20
2024-03-09T22:19:52.024Z,48.10
2024-03-09T22:22:37.207Z,44.43
2024-03-09T22:25:27.762Z,44.13
2024-03-09T22:28:14.107Z,41.33
2024-03-09T22:30:59.576Z,42.70
2024-03-09T22:33:45.279Z,45.13
2024-03-09T22:36:30.490Z,42.73
2024-03-09T22:39:17.366Z,35.40
2024-03-09T22:42:05.633Z,41.20
2024-03-09T22:44:51.420Z,39.03
2024-03-09T22:47:37.278Z,39.40
2024-03-09T22:50:25.491Z,35.13
2024-03-09T22:53:11.901Z,37.70
2024-03-09T22:55:58.639Z,34.80
2024-03-09T22:58:44.034Z,36.03
2024-03-09T23:01:47.072Z,36.83
2024-03-09T23:04:32.840Z,32.05
2024-03-09T23:07:18.433Z,32.43
2024-03-09T23:10:05.101Z,32.93
2024-03-09T23:12:52.972Z,31.43
2024-03-09T23:15:38.638Z,31.63
2024-03-09T23:18:24.699Z,32.07
2024-03-09T23:21:10.983Z,30.63
2024-03-09T23:23:56.327Z,30.27
2024-03-09T23:26:41.638Z,30.40
2024-03-09T23:29:34.073Z,30.97
2024-03-09T23:32:20.494Z,32.20
2024-03-09T23:35:10.459Z,29.10
2024-03-09T23:37:56.365Z,27.80
2024-03-09T23:40:42.115Z,28.73
2024-03-09T23:43:29.242Z,29.47
2024-03-09T23:46:14.941Z,32.43
2024-03-09T23:49:01.335Z,27.47
2024-03-09T23:51:46.863Z,24.83
2024-03-09T23:54:32.380Z,25.57
2024-03-09T23:57:17.745Z,23.60
